sensor_id;sensor_type;location;lat;lon;timestamp;temperature;humidity
4081;DHT22;2055;50.074;8.436;2023-07-22T00:01:36;14.60;99.90
4081;DHT22;2055;50.074;8.436;2023-07-22T00:04:02;15.60;99.90
4081;DHT22;2055;50.074;8.436;2023-07-22T00:06:32;14.70;99.90
4081;DHT22;2055;50.074;8.436;2023-07-22T00:08:57;14.70;99.90
4081;DHT22;2055;50.074;8.436;2023-07-22T00:11:23;14.70;99.90
4081;DHT22;2055;50.074;8.436;2023-07-22T00:13:51;14.60;99.90
4081;DHT22;2055;50.074;8.436;2023-07-22T00:16:23;15.50;99.90
4081;DHT22;2055;50.074;8.436;2023-07-22T00:18:49;14.80;99.90
4081;DHT22;2055;50.074;8.436;2023-07-22T00:21:15;14.40;99.90
4081;DHT22;2055;50.074;8.436;2023-07-22T00:23:40;14.20;99.90
4081;DHT22;2055;50.074;8.436;2023-07-22T00:26:07;14.10;99.90
4081;DHT22;2055;50.074;8.436;2023-07-22T00:28:33;14.40;99.90
4081;DHT22;2055;50.074;8.436;2023-07-22T00:31:02;16.40;99.90
4081;DHT22;2055;50.074;8.436;2023-07-22T00:33:28;14.50;99.90
4081;DHT22;2055;50.074;8.436;2023-07-22T00:35:54;15.50;99.90
4081;DHT22;2055;50.074;8.436;2023-07-22T00:38:20;13.90;99.90
4081;DHT22;2055;50.074;8.436;2023-07-22T00:40:46;14.00;99.90
4081;DHT22;2055;50.074;8.436;2023-07-22T00:43:12;14.00;99.90
4081;DHT22;2055;50.074;8.436;2023-07-22T00:45:37;15.30;99.90
4081;DHT22;2055;50.074;8.436;2023-07-22T00:48:05;14.30;99.90
4081;DHT22;2055;50.074;8.436;2023-07-22T00:50:32;14.30;99.90
4081;DHT22;2055;50.074;8.436;2023-07-22T00:52:58;15.10;99.90
4081;DHT22;2055;50.074;8.436;2023-07-22T00:55:24;14.10;99.90
4081;DHT22;2055;50.074;8.436;2023-07-22T00:57:50;14.50;99.90
4081;DHT22;2055;50.074;8.436;2023-07-22T01:00:16;14.10;99.90
4081;DHT22;2055;50.074;8.436;2023-07-22T01:02:42;15.40;99.90
4081;DHT22;2055;50.074;8.436;2023-07-22T01:05:10;15.60;99.90
4081;DHT22;2055;50.074;8.436;2023-07-22T01:07:37;14.40;99.90
4081;DHT22;2055;50.074;8.436;2023-07-22T01:10:04;14.40;99.90
4081;DHT22;2055;50.074;8.436;2023-07-22T01:12:31;14.30;99.90
4081;DHT22;2055;50.074;8.436;2023-07-22T01:14:57;14.10;99.90
4081;DHT22;2055;50.074;8.436;2023-07-22T01:17:26;14.10;99.90
4081;DHT22;2055;50.074;8.436;2023-07-22T01:19:52;13.90;99.90
4081;DHT22;2055;50.074;8.436;2023-07-22T01:22:19;13.80;99.90
4081;DHT22;2055;50.074;8.436;2023-07-22T01:24:46;13.70;99.90
4081;DHT22;2055;50.074;8.436;2023-07-22T01:27:12;13.60;99.90
4081;DHT22;2055;50.074;8.436;2023-07-22T01:29:39;13.10;99.90
4081;DHT22;2055;50.074;8.436;2023-07-22T01:32:05;13.40;99.90
4081;DHT22;2055;50.074;8.436;2023-07-22T01:34:31;13.30;99.90
4081;DHT22;2055;50.074;8.436;2023-07-22T01:36:57;13.20;99.90
4081;DHT22;2055;50.074;8.436;2023-07-22T01:39:22;13.00;99.90
4081;DHT22;2055;50.074;8.436;2023-07-22T01:41:48;12.90;99.90
4081;DHT22;2055;50.074;8.436;2023-07-22T01:44:14;14.00;99.90
4081;DHT22;2055;50.074;8.436;2023-07-22T01:46:40;12.80;99.90
4081;DHT22;2055;50.074;8.436;2023-07-22T01:49:10;12.70;99.90
4081;DHT22;2055;50.074;8.436;2023-07-22T01:51:39;12.70;99.90
4081;DHT22;2055;50.074;8.436;2023-07-22T01:54:08;12.70;99.90
4081;DHT22;2055;50.074;8.436;2023-07-22T01:56:38;12.40;99.90
4081;DHT22;2055;50.074;8.436;2023-07-22T01:59:05;12.60;99.90
4081;DHT22;2055;50.074;8.436;2023-07-22T02:01:31;12.50;99.90
4081;DHT22;2055;50.074;8.436;2023-07-22T02:04:00;12.40;99.90
4081;DHT22;2055;50.074;8.436;2023-07-22T02:06:26;12.20;99.90
4081;DHT22;2055;50.074;8.436;2023-07-22T02:08:52;12.20;99.90
4081;DHT22;2055;50.074;8.436;2023-07-22T02:11:18;12.10;99.90
4081;DHT22;2055;50.074;8.436;2023-07-22T02:13:44;13.20;99.90
4081;DHT22;2055;50.074;8.436;2023-07-22T02:16:09;12.00;99.90
4081;DHT22;2055;50.074;8.436;2023-07-22T02:18:37;11.70;99.90
4081;DHT22;2055;50.074;8.436;2023-07-22T02:21:03;11.90;99.90
4081;DHT22;2055;50.074;8.436;2023-07-22T02:23:29;11.90;99.90
4081;DHT22;2055;50.074;8.436;2023-07-22T02:25:54;11.60;99.90
4081;DHT22;2055;50.074;8.436;2023-07-22T02:28:21;11.70;99.90
4081;DHT22;2055;50.074;8.436;2023-07-22T02:30:47;13.40;99.90
4081;DHT22;2055;50.074;8.436;2023-07-22T02:33:14;11.70;99.90
4081;DHT22;2055;50.074;8.436;2023-07-22T02:35:41;11.60;99.90
4081;DHT22;2055;50.074;8.436;2023-07-22T02:38:10;11.60;99.90
4081;DHT22;2055;50.074;8.436;2023-07-22T02:40:37;11.40;99.90
4081;DHT22;2055;50.074;8.436;2023-07-22T02:43:02;11.70;99.90
4081;DHT22;2055;50.074;8.436;2023-07-22T02:45:28;11.50;99.90
4081;DHT22;2055;50.074;8.436;2023-07-22T02:47:57;11.70;99.90
4081;DHT22;2055;50.074;8.436;2023-07-22T02:50:23;11.90;99.90
4081;DHT22;2055;50.074;8.436;2023-07-22T02:52:48;11.60;99.90
4081;DHT22;2055;50.074;8.436;2023-07-22T02:55:15;11.70;99.90
4081;DHT22;2055;50.074;8.436;2023-07-22T02:57:44;11.60;99.90
4081;DHT22;2055;50.074;8.436;2023-07-22T03:00:13;11.70;99.90
4081;DHT22;2055;50.074;8.436;2023-07-22T03:02:40;11.40;99.90
4081;DHT22;2055;50.074;8.436;2023-07-22T03:05:07;11.60;99.90
4081;DHT22;2055;50.074;8.436;2023-07-22T03:07:34;11.60;99.90
4081;DHT22;2055;50.074;8.436;2023-07-22T03:10:00;11.70;99.90
4081;DHT22;2055;50.074;8.436;2023-07-22T03:12:26;12.30;99.90
4081;DHT22;2055;50.074;8.436;2023-07-22T03:14:51;12.20;99.90
4081;DHT22;2055;50.074;8.436;2023-07-22T03:17:18;12.50;99.90
4081;DHT22;2055;50.074;8.436;2023-07-22T03:19:44;12.40;99.90
4081;DHT22;2055;50.074;8.436;2023-07-22T03:22:13;14.50;99.90
4081;DHT22;2055;50.074;8.436;2023-07-22T03:24:39;12.40;99.90
4081;DHT22;2055;50.074;8.436;2023-07-22T03:27:05;12.30;99.90
4081;DHT22;2055;50.074;8.436;2023-07-22T03:29:32;12.20;99.90
4081;DHT22;2055;50.074;8.436;2023-07-22T03:31:58;12.10;99.90
4081;DHT22;2055;50.074;8.436;2023-07-22T03:34:28;12.00;99.90
4081;DHT22;2055;50.074;8.436;2023-07-22T03:36:53;11.90;99.90
4081;DHT22;2055;50.074;8.436;2023-07-22T03:39:19;11.90;99.90
4081;DHT22;2055;50.074;8.436;2023-07-22T03:41:45;11.90;99.90
4081;DHT22;2055;50.074;8.436;2023-07-22T03:44:11;11.90;99.90
4081;DHT22;2055;50.074;8.436;2023-07-22T03:46:37;11.80;99.90
4081;DHT22;2055;50.074;8.436;2023-07-22T03:49:02;11.70;99.90
4081;DHT22;2055;50.074;8.436;2023-07-22T03:51:28;11.70;99.90
4081;DHT22;2055;50.074;8.436;2023-07-22T03:53:54;11.60;99.90
4081;DHT22;2055;50.074;8.436;2023-07-22T03:56:21;11.60;99.90
4081;DHT22;2055;50.074;8.436;2023-07-22T03:58:49;11.70;99.90
4081;DHT22;2055;50.074;8.436;2023-07-22T04:01:18;11.60;99.90
4081;DHT22;2055;50.074;8.436;2023-07-22T04:03:44;13.60;99.90
4081;DHT22;2055;50.074;8.436;2023-07-22T04:06:09;11.60;99.90
4081;DHT22;2055;50.074;8.436;2023-07-22T04:08:35;11.50;99.90
4081;DHT22;2055;50.074;8.436;2023-07-22T04:11:01;11.50;99.90
4081;DHT22;2055;50.074;8.436;2023-07-22T04:13:27;11.50;99.90
4081;DHT22;2055;50.074;8.436;2023-07-22T04:15:52;11.60;99.90
4081;DHT22;2055;50.074;8.436;2023-07-22T04:18:19;11.70;99.90
4081;DHT22;2055;50.074;8.436;2023-07-22T04:20:46;11.80;99.90
4081;DHT22;2055;50.074;8.436;2023-07-22T04:23:13;11.90;99.90
4081;DHT22;2055;50.074;8.436;2023-07-22T04:25:43;11.80;99.90
4081;DHT22;2055;50.074;8.436;2023-07-22T04:28:09;11.90;99.90
4081;DHT22;2055;50.074;8.436;2023-07-22T04:30:36;11.90;99.90
4081;DHT22;2055;50.074;8.436;2023-07-22T04:33:02;11.80;99.90
4081;DHT22;2055;50.074;8.436;2023-07-22T04:35:40;12.40;99.90
4081;DHT22;2055;50.074;8.436;2023-07-22T04:38:06;12.20;99.90
4081;DHT22;2055;50.074;8.436;2023-07-22T04:40:32;12.30;99.90
4081;DHT22;2055;50.074;8.436;2023-07-22T04:43:00;12.40;99.90
4081;DHT22;2055;50.074;8.436;2023-07-22T04:45:27;12.50;99.90
4081;DHT22;2055;50.074;8.436;2023-07-22T04:47:53;12.60;99.90
4081;DHT22;2055;50.074;8.436;2023-07-22T04:50:21;12.70;99.90
4081;DHT22;2055;50.074;8.436;2023-07-22T04:52:48;12.90;99.90
4081;DHT22;2055;50.074;8.436;2023-07-22T04:55:14;12.90;99.90
4081;DHT22;2055;50.074;8.436;2023-07-22T04:57:41;13.00;99.90
4081;DHT22;2055;50.074;8.436;2023-07-22T05:00:10;13.10;99.90
4081;DHT22;2055;50.074;8.436;2023-07-22T05:02:42;13.20;99.90
4081;DHT22;2055;50.074;8.436;2023-07-22T05:05:15;13.30;99.90
4081;DHT22;2055;50.074;8.436;2023-07-22T05:07:42;13.40;99.90
4081;DHT22;2055;50.074;8.436;2023-07-22T05:10:09;13.50;99.90
4081;DHT22;2055;50.074;8.436;2023-07-22T05:12:41;13.60;99.90
4081;DHT22;2055;50.074;8.436;2023-07-22T05:15:07;13.80;99.90
4081;DHT22;2055;50.074;8.436;2023-07-22T05:17:36;13.90;99.90
4081;DHT22;2055;50.074;8.436;2023-07-22T05:20:02;14.10;99.90
4081;DHT22;2055;50.074;8.436;2023-07-22T05:22:29;14.20;99.90
4081;DHT22;2055;50.074;8.436;2023-07-22T05:24:54;14.20;99.90
4081;DHT22;2055;50.074;8.436;2023-07-22T05:27:21;14.00;99.90
4081;DHT22;2055;50.074;8.436;2023-07-22T05:29:47;14.00;99.90
4081;DHT22;2055;50.074;8.436;2023-07-22T05:32:12;14.00;99.90
4081;DHT22;2055;50.074;8.436;2023-07-22T05:34:38;13.90;99.90
4081;DHT22;2055;50.074;8.436;2023-07-22T05:37:04;15.20;99.90
4081;DHT22;2055;50.074;8.436;2023-07-22T05:39:31;14.00;99.90
4081;DHT22;2055;50.074;8.436;2023-07-22T05:41:57;14.00;99.90
4081;DHT22;2055;50.074;8.436;2023-07-22T05:44:23;14.00;99.90
4081;DHT22;2055;50.074;8.436;2023-07-22T05:46:48;14.20;99.90
4081;DHT22;2055;50.074;8.436;2023-07-22T05:49:14;14.60;99.90
4081;DHT22;2055;50.074;8.436;2023-07-22T05:51:39;14.50;99.90
4081;DHT22;2055;50.074;8.436;2023-07-22T05:54:05;14.50;99.90
4081;DHT22;2055;50.074;8.436;2023-07-22T05:56:31;14.60;99.90
4081;DHT22;2055;50.074;8.436;2023-07-22T05:58:56;14.70;99.90
4081;DHT22;2055;50.074;8.436;2023-07-22T06:01:23;14.90;99.90
4081;DHT22;2055;50.074;8.436;2023-07-22T06:03:50;15.00;99.90
4081;DHT22;2055;50.074;8.436;2023-07-22T06:06:15;15.10;99.90
4081;DHT22;2055;50.074;8.436;2023-07-22T06:08:41;15.10;99.90
4081;DHT22;2055;50.074;8.436;2023-07-22T06:11:07;15.30;99.90
4081;DHT22;2055;50.074;8.436;2023-07-22T06:13:32;15.40;99.90
4081;DHT22;2055;50.074;8.436;2023-07-22T06:15:58;15.50;99.90
4081;DHT22;2055;50.074;8.436;2023-07-22T06:18:26;15.90;99.90
4081;DHT22;2055;50.074;8.436;2023-07-22T06:20:52;15.80;99.90
4081;DHT22;2055;50.074;8.436;2023-07-22T06:23:17;15.80;99.90
4081;DHT22;2055;50.074;8.436;2023-07-22T06:25:43;15.70;99.90
4081;DHT22;2055;50.074;8.436;2023-07-22T06:28:08;16.20;99.90
4081;DHT22;2055;50.074;8.436;2023-07-22T06:30:37;16.50;99.90
4081;DHT22;2055;50.074;8.436;2023-07-22T06:33:03;16.60;99.90
4081;DHT22;2055;50.074;8.436;2023-07-22T06:35:28;17.30;99.90
4081;DHT22;2055;50.074;8.436;2023-07-22T06:37:54;16.70;99.90
4081;DHT22;2055;50.074;8.436;2023-07-22T06:40:19;16.10;99.90
4081;DHT22;2055;50.074;8.436;2023-07-22T06:42:45;17.80;99.90
4081;DHT22;2055;50.074;8.436;2023-07-22T06:45:11;18.50;99.90
4081;DHT22;2055;50.074;8.436;2023-07-22T06:47:36;18.10;99.90
4081;DHT22;2055;50.074;8.436;2023-07-22T06:50:03;18.60;99.90
4081;DHT22;2055;50.074;8.436;2023-07-22T06:52:30;17.60;99.90
4081;DHT22;2055;50.074;8.436;2023-07-22T06:54:56;17.80;99.90
4081;DHT22;2055;50.074;8.436;2023-07-22T06:57:22;17.70;99.90
4081;DHT22;2055;50.074;8.436;2023-07-22T06:59:48;20.10;99.90
4081;DHT22;2055;50.074;8.436;2023-07-22T07:02:16;17.70;99.90
4081;DHT22;2055;50.074;8.436;2023-07-22T07:04:41;15.70;99.90
4081;DHT22;2055;50.074;8.436;2023-07-22T07:07:09;18.00;99.90
4081;DHT22;2055;50.074;8.436;2023-07-22T07:09:35;19.80;99.90
4081;DHT22;2055;50.074;8.436;2023-07-22T07:12:00;18.00;99.90
4081;DHT22;2055;50.074;8.436;2023-07-22T07:14:26;17.70;99.90
4081;DHT22;2055;50.074;8.436;2023-07-22T07:16:55;17.80;99.90
4081;DHT22;2055;50.074;8.436;2023-07-22T07:19:21;18.00;99.90
4081;DHT22;2055;50.074;8.436;2023-07-22T07:21:46;17.80;99.90
4081;DHT22;2055;50.074;8.436;2023-07-22T07:24:12;18.20;99.90
4081;DHT22;2055;50.074;8.436;2023-07-22T07:26:40;18.40;99.90
4081;DHT22;2055;50.074;8.436;2023-07-22T07:29:06;18.50;99.90
4081;DHT22;2055;50.074;8.436;2023-07-22T07:31:32;18.70;99.90
4081;DHT22;2055;50.074;8.436;2023-07-22T07:33:57;18.40;99.90
4081;DHT22;2055;50.074;8.436;2023-07-22T07:36:23;19.30;99.90
4081;DHT22;2055;50.074;8.436;2023-07-22T07:38:52;18.70;99.90
4081;DHT22;2055;50.074;8.436;2023-07-22T07:41:17;19.50;99.90
4081;DHT22;2055;50.074;8.436;2023-07-22T07:43:44;19.70;99.90
4081;DHT22;2055;50.074;8.436;2023-07-22T07:46:23;20.20;99.90
4081;DHT22;2055;50.074;8.436;2023-07-22T07:48:54;21.90;99.90
4081;DHT22;2055;50.074;8.436;2023-07-22T07:51:22;20.70;99.90
4081;DHT22;2055;50.074;8.436;2023-07-22T07:53:50;20.90;99.90
4081;DHT22;2055;50.074;8.436;2023-07-22T07:56:18;20.00;99.90
4081;DHT22;2055;50.074;8.436;2023-07-22T07:58:45;20.40;99.90
4081;DHT22;2055;50.074;8.436;2023-07-22T08:01:11;19.70;99.90
4081;DHT22;2055;50.074;8.436;2023-07-22T08:03:41;19.70;99.90
4081;DHT22;2055;50.074;8.436;2023-07-22T08:06:07;19.70;99.90
4081;DHT22;2055;50.074;8.436;2023-07-22T08:08:33;17.50;99.90
4081;DHT22;2055;50.074;8.436;2023-07-22T08:11:03;20.20;99.90
4081;DHT22;2055;50.074;8.436;2023-07-22T08:13:29;19.80;99.90
4081;DHT22;2055;50.074;8.436;2023-07-22T08:16:03;19.70;99.90
4081;DHT22;2055;50.074;8.436;2023-07-22T08:18:30;20.40;99.90
4081;DHT22;2055;50.074;8.436;2023-07-22T08:20:56;20.30;99.90
4081;DHT22;2055;50.074;8.436;2023-07-22T08:23:22;22.40;99.90
4081;DHT22;2055;50.074;8.436;2023-07-22T08:25:48;20.50;99.90
4081;DHT22;2055;50.074;8.436;2023-07-22T08:28:14;20.70;99.90
4081;DHT22;2055;50.074;8.436;2023-07-22T08:30:40;20.70;99.90
4081;DHT22;2055;50.074;8.436;2023-07-22T08:33:10;21.20;99.90
4081;DHT22;2055;50.074;8.436;2023-07-22T08:35:37;20.90;99.90
4081;DHT22;2055;50.074;8.436;2023-07-22T08:38:03;21.40;99.90
4081;DHT22;2055;50.074;8.436;2023-07-22T08:40:41;21.40;99.90
4081;DHT22;2055;50.074;8.436;2023-07-22T08:43:08;21.40;99.90
4081;DHT22;2055;50.074;8.436;2023-07-22T08:45:37;21.50;99.90
4081;DHT22;2055;50.074;8.436;2023-07-22T08:48:07;21.10;99.90
4081;DHT22;2055;50.074;8.436;2023-07-22T08:50:52;21.30;99.90
4081;DHT22;2055;50.074;8.436;2023-07-22T08:53:18;21.30;99.90
4081;DHT22;2055;50.074;8.436;2023-07-22T08:55:47;21.60;99.90
4081;DHT22;2055;50.074;8.436;2023-07-22T08:58:19;21.80;99.90
4081;DHT22;2055;50.074;8.436;2023-07-22T09:00:45;21.40;99.90
4081;DHT22;2055;50.074;8.436;2023-07-22T09:03:13;21.70;99.90
4081;DHT22;2055;50.074;8.436;2023-07-22T09:05:40;21.90;99.90
4081;DHT22;2055;50.074;8.436;2023-07-22T09:08:07;21.80;99.90
4081;DHT22;2055;50.074;8.436;2023-07-22T09:10:34;22.10;99.90
4081;DHT22;2055;50.074;8.436;2023-07-22T09:13:00;22.40;99.90
4081;DHT22;2055;50.074;8.436;2023-07-22T09:15:26;22.20;99.90
4081;DHT22;2055;50.074;8.436;2023-07-22T09:17:52;22.10;99.90
4081;DHT22;2055;50.074;8.436;2023-07-22T09:20:19;22.30;99.90
4081;DHT22;2055;50.074;8.436;2023-07-22T09:22:51;22.00;99.90
4081;DHT22;2055;50.074;8.436;2023-07-22T09:25:25;21.70;99.90
4081;DHT22;2055;50.074;8.436;2023-07-22T09:27:54;21.80;99.90
4081;DHT22;2055;50.074;8.436;2023-07-22T09:30:27;21.70;99.90
4081;DHT22;2055;50.074;8.436;2023-07-22T09:32:58;21.50;99.90
4081;DHT22;2055;50.074;8.436;2023-07-22T09:35:28;21.80;99.90
4081;DHT22;2055;50.074;8.436;2023-07-22T09:37:55;22.10;99.90
4081;DHT22;2055;50.074;8.436;2023-07-22T09:40:25;22.30;99.90
4081;DHT22;2055;50.074;8.436;2023-07-22T09:43:01;22.10;99.90
4081;DHT22;2055;50.074;8.436;2023-07-22T09:45:30;22.10;99.90
4081;DHT22;2055;50.074;8.436;2023-07-22T09:47:57;22.40;99.90
4081;DHT22;2055;50.074;8.436;2023-07-22T09:50:25;22.10;99.90
4081;DHT22;2055;50.074;8.436;2023-07-22T09:52:55;22.10;99.90
4081;DHT22;2055;50.074;8.436;2023-07-22T09:55:22;22.60;99.90
4081;DHT22;2055;50.074;8.436;2023-07-22T09:57:56;23.50;99.90
4081;DHT22;2055;50.074;8.436;2023-07-22T10:00:25;23.50;99.90
4081;DHT22;2055;50.074;8.436;2023-07-22T10:02:51;23.90;99.90
4081;DHT22;2055;50.074;8.436;2023-07-22T10:05:21;23.30;99.90
4081;DHT22;2055;50.074;8.436;2023-07-22T10:07:56;22.60;99.90
4081;DHT22;2055;50.074;8.436;2023-07-22T10:10:35;22.00;99.90
4081;DHT22;2055;50.074;8.436;2023-07-22T10:13:03;22.10;99.90
4081;DHT22;2055;50.074;8.436;2023-07-22T10:15:31;22.70;99.90
4081;DHT22;2055;50.074;8.436;2023-07-22T10:18:02;23.00;99.90
4081;DHT22;2055;50.074;8.436;2023-07-22T10:20:29;23.20;99.90
4081;DHT22;2055;50.074;8.436;2023-07-22T10:22:55;22.50;99.90
4081;DHT22;2055;50.074;8.436;2023-07-22T10:25:24;22.60;99.90
4081;DHT22;2055;50.074;8.436;2023-07-22T10:27:51;22.90;99.90
4081;DHT22;2055;50.074;8.436;2023-07-22T10:30:18;23.10;99.90
4081;DHT22;2055;50.074;8.436;2023-07-22T10:32:49;23.50;99.90
4081;DHT22;2055;50.074;8.436;2023-07-22T10:37:55;23.90;99.90
4081;DHT22;2055;50.074;8.436;2023-07-22T10:40:27;24.40;99.90
4081;DHT22;2055;50.074;8.436;2023-07-22T10:42:59;24.20;99.90
4081;DHT22;2055;50.074;8.436;2023-07-22T10:45:30;24.20;99.90
4081;DHT22;2055;50.074;8.436;2023-07-22T10:50:47;23.60;99.90
4081;DHT22;2055;50.074;8.436;2023-07-22T10:58:33;24.30;99.90
4081;DHT22;2055;50.074;8.436;2023-07-22T11:11:56;23.10;99.90
4081;DHT22;2055;50.074;8.436;2023-07-22T11:14:26;23.50;99.90
4081;DHT22;2055;50.074;8.436;2023-07-22T11:16:53;23.30;99.90
4081;DHT22;2055;50.074;8.436;2023-07-22T11:19:21;23.50;99.90
4081;DHT22;2055;50.074;8.436;2023-07-22T11:21:50;23.00;99.90
4081;DHT22;2055;50.074;8.436;2023-07-22T11:24:16;22.90;99.90
4081;DHT22;2055;50.074;8.436;2023-07-22T11:26:42;22.70;99.90
4081;DHT22;2055;50.074;8.436;2023-07-22T11:29:09;22.50;99.90
4081;DHT22;2055;50.074;8.436;2023-07-22T11:31:39;22.60;99.90
4081;DHT22;2055;50.074;8.436;2023-07-22T11:34:09;22.80;99.90
4081;DHT22;2055;50.074;8.436;2023-07-22T11:36:35;23.00;99.90
4081;DHT22;2055;50.074;8.436;2023-07-22T11:39:06;23.20;99.90
4081;DHT22;2055;50.074;8.436;2023-07-22T11:41:33;22.80;99.90
4081;DHT22;2055;50.074;8.436;2023-07-22T11:43:59;24.10;99.90
4081;DHT22;2055;50.074;8.436;2023-07-22T11:46:26;24.20;99.90
4081;DHT22;2055;50.074;8.436;2023-07-22T11:48:53;23.90;99.90
4081;DHT22;2055;50.074;8.436;2023-07-22T11:51:25;23.60;99.90
4081;DHT22;2055;50.074;8.436;2023-07-22T11:53:51;23.60;99.90
4081;DHT22;2055;50.074;8.436;2023-07-22T11:56:28;23.60;99.90
4081;DHT22;2055;50.074;8.436;2023-07-22T11:58:57;23.10;99.90
4081;DHT22;2055;50.074;8.436;2023-07-22T12:01:23;23.10;99.90
4081;DHT22;2055;50.074;8.436;2023-07-22T12:03:50;23.10;99.90
4081;DHT22;2055;50.074;8.436;2023-07-22T12:06:20;23.20;99.90
4081;DHT22;2055;50.074;8.436;2023-07-22T12:08:48;24.50;99.90
4081;DHT22;2055;50.074;8.436;2023-07-22T12:11:24;23.50;99.90
4081;DHT22;2055;50.074;8.436;2023-07-22T12:14:11;23.10;99.90
4081;DHT22;2055;50.074;8.436;2023-07-22T12:16:38;23.20;99.90
4081;DHT22;2055;50.074;8.436;2023-07-22T12:19:05;24.00;99.90
4081;DHT22;2055;50.074;8.436;2023-07-22T12:21:31;24.70;99.90
4081;DHT22;2055;50.074;8.436;2023-07-22T12:23:56;24.50;99.90
4081;DHT22;2055;50.074;8.436;2023-07-22T12:26:22;24.40;99.90
4081;DHT22;2055;50.074;8.436;2023-07-22T12:28:48;24.30;99.90
4081;DHT22;2055;50.074;8.436;2023-07-22T12:31:17;23.90;99.90
4081;DHT22;2055;50.074;8.436;2023-07-22T12:33:42;23.90;99.90
4081;DHT22;2055;50.074;8.436;2023-07-22T12:36:08;24.40;99.90
4081;DHT22;2055;50.074;8.436;2023-07-22T12:38:34;24.20;99.90
4081;DHT22;2055;50.074;8.436;2023-07-22T12:41:00;23.80;99.90
4081;DHT22;2055;50.074;8.436;2023-07-22T12:43:26;23.40;99.90
4081;DHT22;2055;50.074;8.436;2023-07-22T12:45:55;24.10;99.90
4081;DHT22;2055;50.074;8.436;2023-07-22T12:48:20;24.20;99.90
4081;DHT22;2055;50.074;8.436;2023-07-22T12:50:46;24.30;99.90
4081;DHT22;2055;50.074;8.436;2023-07-22T12:53:14;24.60;99.90
4081;DHT22;2055;50.074;8.436;2023-07-22T12:55:40;26.10;99.90
4081;DHT22;2055;50.074;8.436;2023-07-22T12:58:06;25.00;99.90
4081;DHT22;2055;50.074;8.436;2023-07-22T13:00:31;25.00;99.90
4081;DHT22;2055;50.074;8.436;2023-07-22T13:02:57;24.30;98.60
4081;DHT22;2055;50.074;8.436;2023-07-22T13:05:23;24.80;99.90
4081;DHT22;2055;50.074;8.436;2023-07-22T13:07:48;23.50;98.60
4081;DHT22;2055;50.074;8.436;2023-07-22T13:10:15;25.20;99.40
4081;DHT22;2055;50.074;8.436;2023-07-22T13:12:43;25.80;97.50
4081;DHT22;2055;50.074;8.436;2023-07-22T13:15:10;25.90;96.60
4081;DHT22;2055;50.074;8.436;2023-07-22T13:17:35;24.90;96.60
4081;DHT22;2055;50.074;8.436;2023-07-22T13:20:02;24.80;97.00
4081;DHT22;2055;50.074;8.436;2023-07-22T13:22:30;24.90;97.40
4081;DHT22;2055;50.074;8.436;2023-07-22T13:24:59;25.60;95.70
4081;DHT22;2055;50.074;8.436;2023-07-22T13:27:24;25.90;96.20
4081;DHT22;2055;50.074;8.436;2023-07-22T13:29:50;27.30;95.30
4081;DHT22;2055;50.074;8.436;2023-07-22T13:32:18;26.90;94.40
4081;DHT22;2055;50.074;8.436;2023-07-22T13:34:44;27.40;93.80
4081;DHT22;2055;50.074;8.436;2023-07-22T13:37:09;28.20;93.00
4081;DHT22;2055;50.074;8.436;2023-07-22T13:39:35;28.60;90.80
4081;DHT22;2055;50.074;8.436;2023-07-22T13:42:03;26.10;91.40
4081;DHT22;2055;50.074;8.436;2023-07-22T13:44:29;25.60;90.90
4081;DHT22;2055;50.074;8.436;2023-07-22T13:46:54;24.30;90.90
4081;DHT22;2055;50.074;8.436;2023-07-22T13:49:20;25.40;91.00
4081;DHT22;2055;50.074;8.436;2023-07-22T13:51:46;26.80;91.50
4081;DHT22;2055;50.074;8.436;2023-07-22T13:54:19;27.40;90.30
4081;DHT22;2055;50.074;8.436;2023-07-22T13:56:45;27.20;89.90
4081;DHT22;2055;50.074;8.436;2023-07-22T13:59:15;27.10;89.10
4081;DHT22;2055;50.074;8.436;2023-07-22T14:01:40;26.90;88.20
4081;DHT22;2055;50.074;8.436;2023-07-22T14:04:06;27.40;87.50
4081;DHT22;2055;50.074;8.436;2023-07-22T14:06:32;27.70;86.40
4081;DHT22;2055;50.074;8.436;2023-07-22T14:09:00;26.70;87.70
4081;DHT22;2055;50.074;8.436;2023-07-22T14:11:26;26.20;87.80
4081;DHT22;2055;50.074;8.436;2023-07-22T14:13:52;25.50;87.70
4081;DHT22;2055;50.074;8.436;2023-07-22T14:16:18;25.60;90.00
4081;DHT22;2055;50.074;8.436;2023-07-22T14:18:47;25.20;89.30
4081;DHT22;2055;50.074;8.436;2023-07-22T14:21:13;24.80;87.20
4081;DHT22;2055;50.074;8.436;2023-07-22T14:23:39;26.90;90.10
4081;DHT22;2055;50.074;8.436;2023-07-22T14:26:04;27.00;88.70
4081;DHT22;2055;50.074;8.436;2023-07-22T14:28:30;27.20;86.00
4081;DHT22;2055;50.074;8.436;2023-07-22T14:30:56;27.50;85.20
4081;DHT22;2055;50.074;8.436;2023-07-22T14:33:21;29.20;85.30
4081;DHT22;2055;50.074;8.436;2023-07-22T14:35:47;27.80;83.20
4081;DHT22;2055;50.074;8.436;2023-07-22T14:38:12;26.60;82.70
4081;DHT22;2055;50.074;8.436;2023-07-22T14:40:38;26.70;85.00
4081;DHT22;2055;50.074;8.436;2023-07-22T14:43:03;26.10;84.00
4081;DHT22;2055;50.074;8.436;2023-07-22T14:45:32;25.80;85.30
4081;DHT22;2055;50.074;8.436;2023-07-22T14:47:58;25.80;85.30
4081;DHT22;2055;50.074;8.436;2023-07-22T14:50:24;25.70;86.70
4081;DHT22;2055;50.074;8.436;2023-07-22T14:52:53;25.60;86.90
4081;DHT22;2055;50.074;8.436;2023-07-22T14:55:19;25.60;84.70
4081;DHT22;2055;50.074;8.436;2023-07-22T14:57:45;25.10;83.90
4081;DHT22;2055;50.074;8.436;2023-07-22T15:00:15;25.00;83.70
4081;DHT22;2055;50.074;8.436;2023-07-22T15:02:40;26.80;88.20
4081;DHT22;2055;50.074;8.436;2023-07-22T15:05:06;29.70;83.00
4081;DHT22;2055;50.074;8.436;2023-07-22T15:07:32;27.30;81.30
4081;DHT22;2055;50.074;8.436;2023-07-22T15:09:58;25.90;79.00
4081;DHT22;2055;50.074;8.436;2023-07-22T15:12:24;25.70;79.80
4081;DHT22;2055;50.074;8.436;2023-07-22T15:14:49;27.90;85.40
4081;DHT22;2055;50.074;8.436;2023-07-22T15:17:15;26.90;83.20
4081;DHT22;2055;50.074;8.436;2023-07-22T15:19:41;28.40;79.20
4081;DHT22;2055;50.074;8.436;2023-07-22T15:22:06;27.30;77.50
4081;DHT22;2055;50.074;8.436;2023-07-22T15:24:32;26.50;79.00
4081;DHT22;2055;50.074;8.436;2023-07-22T15:27:01;28.30;81.10
4081;DHT22;2055;50.074;8.436;2023-07-22T15:29:26;26.70;80.10
4081;DHT22;2055;50.074;8.436;2023-07-22T15:31:55;27.60;80.20
4081;DHT22;2055;50.074;8.436;2023-07-22T15:34:20;27.00;77.70
4081;DHT22;2055;50.074;8.436;2023-07-22T15:36:46;26.10;77.40
4081;DHT22;2055;50.074;8.436;2023-07-22T15:39:11;25.40;78.50
4081;DHT22;2055;50.074;8.436;2023-07-22T15:41:37;25.70;80.30
4081;DHT22;2055;50.074;8.436;2023-07-22T15:44:03;26.90;80.20
4081;DHT22;2055;50.074;8.436;2023-07-22T15:46:28;25.50;78.90
4081;DHT22;2055;50.074;8.436;2023-07-22T15:48:54;24.10;77.50
4081;DHT22;2055;50.074;8.436;2023-07-22T15:51:20;26.60;80.40
4081;DHT22;2055;50.074;8.436;2023-07-22T15:53:45;28.80;78.20
4081;DHT22;2055;50.074;8.436;2023-07-22T15:56:13;27.50;78.50
4081;DHT22;2055;50.074;8.436;2023-07-22T15:58:43;28.30;79.50
4081;DHT22;2055;50.074;8.436;2023-07-22T16:01:09;26.70;77.40
4081;DHT22;2055;50.074;8.436;2023-07-22T16:03:36;26.80;77.90
4081;DHT22;2055;50.074;8.436;2023-07-22T16:06:03;27.80;78.10
4081;DHT22;2055;50.074;8.436;2023-07-22T16:08:28;28.40;75.80
4081;DHT22;2055;50.074;8.436;2023-07-22T16:11:04;28.10;76.90
4081;DHT22;2055;50.074;8.436;2023-07-22T16:13:30;27.30;76.80
4081;DHT22;2055;50.074;8.436;2023-07-22T16:15:55;26.60;75.80
4081;DHT22;2055;50.074;8.436;2023-07-22T16:18:21;26.70;76.40
4081;DHT22;2055;50.074;8.436;2023-07-22T16:20:47;27.20;76.00
4081;DHT22;2055;50.074;8.436;2023-07-22T16:23:12;27.00;75.30